Macks Creek, Missouri
Current Conditions -  °F | °C
As of 2:15 AM on Thursday 27 Nov 2014 (Local Time) from KH21 Reporting Station
Overcast Overcast  
Wind Chill: 23°   Ceiling: 800
Heat Index: 32°   Visibility: 7mi
Dew Point: 28°   Wind: 13mph
Humidity: 87%   Direction: 290°WNW
Pressure: 30.38"   Gusts: NA
Location:  37.97°N, 92.97°W
Report Text: KH21 270815Z AUTO 29011KT 7SM OVC008 00/M02 A3038 RMK AO2
Loading
Personal Weather Stations






























Interactive Weather Map New forecast layout! Learn more

10-Day Weather Forecast

Advertisements
Track Severe Weather on mobile